createdAt,value
2018-05-17T00:03:11.161Z,12.07
2018-05-17T00:08:05.323Z,11.96
2018-05-17T00:13:00.020Z,11.87
2018-05-17T00:17:53.894Z,11.82
2018-05-17T00:22:48.201Z,11.77
2018-05-17T00:27:42.031Z,11.75
2018-05-17T00:32:35.772Z,11.70
2018-05-17T00:37:29.645Z,11.59
2018-05-17T00:42:23.333Z,11.49
2018-05-17T00:47:16.966Z,11.45
2018-05-17T00:52:11.438Z,11.40
2018-05-17T00:57:06.077Z,11.31
2018-05-17T01:01:59.858Z,11.24
2018-05-17T01:06:53.556Z,11.21
2018-05-17T01:11:47.293Z,11.12
2018-05-17T01:16:40.915Z,11.06
2018-05-17T01:21:34.569Z,11.01
2018-05-17T01:26:28.407Z,10.99
2018-05-17T01:31:22.097Z,11.04
2018-05-17T01:36:16.494Z,11.05
2018-05-17T01:41:14.838Z,11.06
2018-05-17T01:46:08.549Z,11.02
2018-05-17T01:51:02.445Z,11.21
2018-05-17T01:55:56.928Z,11.16
2018-05-17T02:00:50.613Z,11.23
2018-05-17T02:05:44.268Z,11.27
2018-05-17T02:10:38.688Z,11.31
2018-05-17T02:15:33.304Z,11.36
2018-05-17T02:20:27.595Z,11.44
2018-05-17T02:25:21.323Z,11.45
2018-05-17T02:30:15.114Z,11.48
2018-05-17T02:35:08.929Z,11.52
2018-05-17T02:40:02.690Z,11.65
2018-05-17T02:44:56.556Z,11.64
2018-05-17T02:49:50.373Z,11.66
2018-05-17T02:54:44.132Z,11.73
2018-05-17T02:59:38.022Z,11.75
2018-05-17T03:04:32.060Z,11.76
2018-05-17T03:09:25.804Z,11.78
2018-05-17T03:14:20.348Z,11.98
2018-05-17T03:19:15.329Z,11.95
2018-05-17T03:24:09.094Z,12.08
2018-05-17T03:29:02.822Z,12.01
2018-05-17T03:33:56.563Z,11.98
2018-05-17T03:38:51.099Z,12.09
2018-05-17T03:43:44.869Z,12.06
2018-05-17T03:48:38.625Z,12.05
2018-05-17T03:53:32.621Z,12.10
2018-05-17T03:58:26.473Z,12.17
2018-05-17T04:03:37.600Z,12.23
2018-05-17T04:08:31.348Z,12.29
2018-05-17T04:13:25.238Z,12.37
2018-05-17T04:18:19.041Z,12.46
2018-05-17T04:23:12.947Z,12.45
2018-05-17T04:28:08.438Z,12.42
2018-05-17T04:33:02.249Z,12.55
2018-05-17T04:37:56.082Z,12.62
2018-05-17T04:42:49.865Z,12.69
2018-05-17T04:47:43.619Z,12.61
2018-05-17T04:52:37.951Z,12.46
2018-05-17T04:57:32.871Z,12.37
2018-05-17T05:02:27.013Z,12.36
2018-05-17T05:07:20.629Z,12.33
2018-05-17T05:12:14.872Z,12.28
2018-05-17T05:17:08.922Z,12.19
2018-05-17T05:22:05.980Z,12.16
2018-05-17T05:27:00.111Z,12.17
2018-05-17T05:31:55.469Z,12.17
2018-05-17T05:36:49.113Z,12.17
2018-05-17T05:41:42.740Z,12.21
2018-05-17T05:46:37.147Z,12.34
2018-05-17T05:51:35.457Z,12.32
2018-05-17T05:56:30.642Z,12.40
2018-05-17T06:01:24.308Z,12.48
2018-05-17T06:06:18.003Z,12.54
2018-05-17T06:11:12.035Z,12.62
2018-05-17T06:16:07.876Z,12.71
2018-05-17T06:21:02.937Z,12.91
2018-05-17T06:25:57.223Z,13.03
2018-05-17T06:36:15.045Z,13.19
2018-05-17T06:41:08.904Z,13.26
2018-05-17T06:46:03.267Z,13.35
2018-05-17T06:50:57.051Z,13.31
2018-05-17T06:55:50.698Z,13.36
2018-05-17T07:00:45.046Z,13.37
2018-05-17T07:05:39.443Z,13.39
2018-05-17T07:10:33.000Z,13.37
2018-05-17T07:15:26.593Z,13.37
2018-05-17T07:20:20.228Z,13.39
2018-05-17T07:25:14.246Z,13.34
2018-05-17T07:30:13.135Z,13.34
2018-05-17T07:35:08.902Z,13.41
2018-05-17T07:40:04.836Z,13.52
2018-05-17T07:44:59.358Z,13.64
2018-05-17T07:49:54.471Z,13.75
2018-05-17T07:54:52.038Z,14.10
2018-05-17T07:59:48.043Z,14.21
2018-05-17T08:04:42.057Z,14.18
2018-05-17T08:09:35.615Z,14.16
2018-05-17T08:14:29.985Z,14.12
2018-05-17T08:19:23.728Z,14.09
2018-05-17T08:24:18.127Z,14.05
2018-05-17T08:29:14.034Z,13.91
2018-05-17T08:34:08.244Z,13.85
2018-05-17T08:39:06.054Z,13.78
2018-05-17T08:44:01.027Z,13.83
2018-05-17T08:48:54.818Z,14.07
2018-05-17T08:53:51.674Z,14.32
2018-05-17T08:58:45.399Z,14.40
2018-05-17T09:03:43.747Z,14.49
2018-05-17T09:08:39.512Z,14.67
2018-05-17T09:13:33.965Z,14.76
2018-05-17T09:18:29.884Z,14.96
2018-05-17T09:23:24.233Z,15.28
2018-05-17T09:28:18.445Z,15.66
2018-05-17T09:33:12.930Z,15.89
2018-05-17T09:38:08.490Z,16.02
2018-05-17T09:43:02.587Z,16.05
2018-05-17T09:47:58.032Z,16.23
2018-05-17T09:52:52.208Z,16.36
2018-05-17T09:57:52.394Z,16.42
2018-05-17T10:02:49.046Z,16.23
2018-05-17T10:07:43.691Z,15.55
2018-05-17T10:12:38.130Z,15.45
2018-05-17T10:17:39.027Z,15.25
2018-05-17T10:22:41.984Z,15.22
2018-05-17T10:27:45.978Z,15.17
2018-05-17T10:32:40.030Z,15.27
2018-05-17T10:37:36.044Z,15.22
2018-05-17T10:42:29.706Z,15.25
2018-05-17T10:47:23.248Z,15.33
2018-05-17T10:52:20.451Z,15.37
2018-05-17T10:57:14.849Z,15.33
2018-05-17T11:02:08.541Z,15.64
2018-05-17T11:07:03.229Z,15.82
2018-05-17T11:11:57.045Z,16.13
2018-05-17T11:16:56.850Z,15.81
2018-05-17T11:21:51.958Z,15.79
2018-05-17T11:26:47.746Z,15.73
2018-05-17T11:31:42.622Z,15.63
2018-05-17T11:36:37.289Z,15.67
2018-05-17T11:41:32.053Z,15.83
2018-05-17T11:46:25.633Z,15.87
2018-05-17T11:51:19.221Z,16.04
2018-05-17T11:56:14.052Z,15.63
2018-05-17T12:01:08.874Z,15.60
2018-05-17T12:06:05.032Z,15.95
2018-05-17T12:10:58.747Z,16.25
2018-05-17T12:15:53.641Z,16.12
2018-05-17T12:20:47.247Z,16.27
2018-05-17T12:25:42.371Z,16.33
2018-05-17T12:30:37.852Z,16.32
2018-05-17T12:35:36.461Z,16.39
2018-05-17T12:40:37.840Z,17.08
2018-05-17T12:45:34.521Z,17.55
2018-05-17T12:50:29.182Z,18.13
2018-05-17T12:55:23.488Z,18.57
2018-05-17T13:00:17.981Z,18.66
2018-05-17T13:05:25.747Z,18.37
2018-05-17T13:10:19.997Z,18.10
2018-05-17T13:15:13.580Z,17.76
2018-05-17T13:20:07.151Z,17.44
2018-05-17T13:25:01.237Z,17.31
2018-05-17T13:29:55.149Z,17.20
2018-05-17T13:34:49.031Z,17.27
2018-05-17T13:39:42.914Z,17.28
2018-05-17T13:44:36.460Z,17.27
2018-05-17T13:49:30.343Z,17.16
2018-05-17T13:54:33.909Z,17.30
2018-05-17T13:59:29.530Z,17.24
2018-05-17T14:04:23.208Z,16.80
2018-05-17T14:09:20.779Z,16.73
2018-05-17T14:14:18.549Z,16.93
2018-05-17T14:19:13.357Z,17.32
2018-05-17T14:24:06.975Z,17.52
2018-05-17T14:29:01.280Z,17.93
2018-05-17T14:33:54.910Z,18.10
2018-05-17T14:38:48.562Z,18.15
2018-05-17T14:52:51.075Z,18.87
2018-05-17T14:57:44.594Z,19.03
2018-05-17T15:02:38.145Z,19.16
2018-05-17T15:07:32.023Z,19.35
2018-05-17T15:12:25.600Z,19.39
2018-05-17T15:17:21.514Z,19.53
2018-05-17T15:22:15.291Z,19.39
2018-05-17T15:27:08.970Z,19.12
2018-05-17T15:32:02.934Z,18.99
2018-05-17T15:36:59.036Z,19.13
2018-05-17T15:41:53.199Z,18.98
2018-05-17T15:46:47.492Z,19.06
2018-05-17T15:51:41.424Z,18.77
2018-05-17T15:56:35.322Z,18.68
2018-05-17T16:01:29.678Z,19.02
2018-05-17T16:06:23.145Z,18.89
2018-05-17T16:11:17.431Z,19.02
2018-05-17T16:16:11.657Z,18.99
2018-05-17T16:21:05.934Z,19.07
2018-05-17T16:26:00.123Z,18.87
2018-05-17T16:30:53.582Z,18.75
2018-05-17T16:35:47.027Z,18.60
2018-05-17T16:40:41.212Z,18.63
2018-05-17T16:45:35.783Z,18.65
2018-05-17T16:50:29.209Z,18.56
2018-05-17T16:55:22.631Z,18.27
2018-05-17T17:00:17.268Z,18.23
2018-05-17T17:05:11.724Z,17.92
2018-05-17T17:10:05.125Z,17.96
2018-05-17T17:14:58.617Z,17.69
2018-05-17T17:19:52.803Z,17.51
2018-05-17T17:24:46.249Z,17.46
2018-05-17T17:29:39.678Z,17.42
2018-05-17T17:34:33.353Z,17.39
2018-05-17T17:39:27.006Z,17.36
2018-05-17T17:44:21.258Z,17.30
2018-05-17T17:49:14.709Z,17.28
2018-05-17T17:54:08.549Z,17.26
2018-05-17T17:59:02.318Z,17.14
2018-05-17T18:03:56.527Z,17.07
2018-05-17T18:08:49.973Z,16.99
2018-05-17T18:13:43.429Z,16.84
2018-05-17T18:18:37.052Z,16.67
2018-05-17T18:23:38.643Z,16.48
2018-05-17T18:28:33.562Z,16.31
2018-05-17T18:33:26.999Z,16.25
2018-05-17T18:38:20.462Z,16.18
2018-05-17T18:43:13.961Z,16.12
2018-05-17T18:48:07.641Z,16.13
2018-05-17T18:53:01.236Z,16.17
2018-05-17T18:57:54.733Z,16.08
2018-05-17T19:02:48.543Z,15.72
2018-05-17T19:07:42.047Z,15.75
2018-05-17T19:12:35.644Z,15.75
2018-05-17T19:17:29.095Z,15.70
2018-05-17T19:22:23.547Z,15.51
2018-05-17T19:27:17.003Z,15.46
2018-05-17T19:32:10.468Z,15.48
2018-05-17T19:37:04.440Z,15.37
2018-05-17T19:41:57.902Z,15.42
2018-05-17T19:46:51.393Z,15.54
2018-05-17T19:51:44.871Z,15.62
2018-05-17T19:56:38.295Z,15.61
2018-05-17T20:01:32.597Z,15.57
2018-05-17T20:06:26.481Z,15.55
2018-05-17T20:11:20.728Z,15.59
2018-05-17T20:16:14.206Z,15.56
2018-05-17T20:21:07.695Z,15.54
2018-05-17T20:26:01.247Z,15.50
2018-05-17T20:30:55.516Z,15.54
2018-05-17T20:35:48.937Z,15.48
2018-05-17T20:40:42.439Z,15.46
2018-05-17T20:45:35.889Z,15.39
2018-05-17T20:50:29.734Z,15.43
2018-05-17T20:55:23.915Z,15.41
2018-05-17T21:00:17.332Z,15.40
2018-05-17T21:05:10.973Z,15.38
2018-05-17T21:10:04.566Z,15.30
2018-05-17T21:14:58.185Z,15.26
2018-05-17T21:19:51.634Z,15.19
2018-05-17T21:24:45.867Z,15.18
2018-05-17T21:29:39.349Z,15.05
2018-05-17T21:34:33.543Z,15.01
2018-05-17T21:39:27.827Z,14.94
2018-05-17T21:44:21.654Z,14.82
2018-05-17T21:49:15.155Z,14.71
2018-05-17T21:54:08.600Z,14.56
2018-05-17T21:59:02.038Z,14.47
2018-05-17T22:03:55.586Z,14.34
2018-05-17T22:08:49.129Z,14.12
2018-05-17T22:13:42.578Z,14.07
2018-05-17T22:18:36.074Z,14.00
2018-05-17T22:23:30.420Z,14.03
2018-05-17T22:28:23.935Z,14.01
2018-05-17T22:33:17.406Z,14.05
2018-05-17T22:38:10.839Z,13.96
2018-05-17T22:43:04.288Z,13.86
2018-05-17T22:47:57.732Z,13.77
2018-05-17T22:52:51.176Z,13.70
2018-05-17T22:58:02.188Z,13.58
2018-05-17T23:02:56.350Z,13.45
2018-05-17T23:07:51.529Z,13.41
2018-05-17T23:12:44.937Z,13.37
2018-05-17T23:17:38.362Z,13.37
2018-05-17T23:22:38.191Z,13.30
2018-05-17T23:27:31.601Z,13.25
2018-05-17T23:32:25.840Z,13.23
2018-05-17T23:37:21.203Z,13.23
2018-05-17T23:42:14.704Z,13.21
2018-05-17T23:47:08.982Z,13.16
